sensor_id;sensor_type;location;lat;lon;timestamp;P1;durP1;ratioP1;P2;durP2;ratioP2
53513;SDS011;39768;54.148;12.174;2022-08-25T00:01:09;1.40;;;1.17;;
53513;SDS011;39768;54.148;12.174;2022-08-25T00:05:20;3.92;;;1.27;;
53513;SDS011;39768;54.148;12.174;2022-08-25T00:09:24;1.25;;;1.15;;
53513;SDS011;39768;54.148;12.174;2022-08-25T00:13:27;5.70;;;1.50;;
53513;SDS011;39768;54.148;12.174;2022-08-25T00:17:29;1.38;;;0.90;;
53513;SDS011;39768;54.148;12.174;2022-08-25T00:21:31;2.13;;;1.45;;
53513;SDS011;39768;54.148;12.174;2022-08-25T00:25:33;3.28;;;1.52;;
53513;SDS011;39768;54.148;12.174;2022-08-25T00:29:35;1.88;;;1.20;;
53513;SDS011;39768;54.148;12.174;2022-08-25T00:33:38;1.52;;;1.20;;
53513;SDS011;39768;54.148;12.174;2022-08-25T00:37:39;1.52;;;1.33;;
53513;SDS011;39768;54.148;12.174;2022-08-25T00:41:41;1.00;;;0.90;;
53513;SDS011;39768;54.148;12.174;2022-08-25T00:45:43;1.30;;;1.25;;
53513;SDS011;39768;54.148;12.174;2022-08-25T00:49:46;1.40;;;1.30;;
53513;SDS011;39768;54.148;12.174;2022-08-25T00:53:51;1.50;;;1.10;;
53513;SDS011;39768;54.148;12.174;2022-08-25T00:58:04;2.15;;;0.93;;
53513;SDS011;39768;54.148;12.174;2022-08-25T01:02:18;1.23;;;0.70;;
53513;SDS011;39768;54.148;12.174;2022-08-25T01:06:19;1.08;;;1.02;;
53513;SDS011;39768;54.148;12.174;2022-08-25T01:10:22;0.93;;;0.85;;
53513;SDS011;39768;54.148;12.174;2022-08-25T01:14:24;1.10;;;1.00;;
53513;SDS011;39768;54.148;12.174;2022-08-25T01:18:28;1.35;;;1.25;;
53513;SDS011;39768;54.148;12.174;2022-08-25T01:22:33;1.30;;;0.77;;
53513;SDS011;39768;54.148;12.174;2022-08-25T01:26:35;1.17;;;1.08;;
53513;SDS011;39768;54.148;12.174;2022-08-25T01:30:36;1.17;;;1.08;;
53513;SDS011;39768;54.148;12.174;2022-08-25T01:34:39;0.93;;;0.80;;
53513;SDS011;39768;54.148;12.174;2022-08-25T01:38:42;1.65;;;1.30;;
53513;SDS011;39768;54.148;12.174;2022-08-25T01:42:57;1.35;;;1.17;;
53513;SDS011;39768;54.148;12.174;2022-08-25T01:47:08;1.40;;;1.30;;
53513;SDS011;39768;54.148;12.174;2022-08-25T01:51:12;2.33;;;1.48;;
53513;SDS011;39768;54.148;12.174;2022-08-25T01:55:16;3.80;;;1.33;;
53513;SDS011;39768;54.148;12.174;2022-08-25T01:59:17;1.60;;;1.50;;
53513;SDS011;39768;54.148;12.174;2022-08-25T02:03:24;2.13;;;1.65;;
53513;SDS011;39768;54.148;12.174;2022-08-25T02:07:26;1.48;;;1.27;;
53513;SDS011;39768;54.148;12.174;2022-08-25T02:11:28;1.60;;;1.40;;
53513;SDS011;39768;54.148;12.174;2022-08-25T02:15:30;1.45;;;1.27;;
53513;SDS011;39768;54.148;12.174;2022-08-25T02:19:32;1.65;;;1.55;;
53513;SDS011;39768;54.148;12.174;2022-08-25T02:23:34;1.92;;;1.25;;
53513;SDS011;39768;54.148;12.174;2022-08-25T02:27:36;1.42;;;1.33;;
53513;SDS011;39768;54.148;12.174;2022-08-25T02:31:37;1.02;;;0.93;;
53513;SDS011;39768;54.148;12.174;2022-08-25T02:35:39;2.35;;;1.27;;
53513;SDS011;39768;54.148;12.174;2022-08-25T02:39:41;2.60;;;1.00;;
53513;SDS011;39768;54.148;12.174;2022-08-25T02:43:43;1.60;;;1.27;;
53513;SDS011;39768;54.148;12.174;2022-08-25T02:47:45;1.83;;;1.40;;
53513;SDS011;39768;54.148;12.174;2022-08-25T02:51:47;1.60;;;1.50;;
53513;SDS011;39768;54.148;12.174;2022-08-25T02:55:48;1.45;;;1.30;;
53513;SDS011;39768;54.148;12.174;2022-08-25T02:59:50;1.20;;;1.10;;
53513;SDS011;39768;54.148;12.174;2022-08-25T03:03:51;5.65;;;1.67;;
53513;SDS011;39768;54.148;12.174;2022-08-25T03:07:54;2.33;;;1.42;;
53513;SDS011;39768;54.148;12.174;2022-08-25T03:11:58;1.60;;;1.38;;
53513;SDS011;39768;54.148;12.174;2022-08-25T03:16:00;1.55;;;1.45;;
53513;SDS011;39768;54.148;12.174;2022-08-25T03:20:04;1.42;;;1.30;;
53513;SDS011;39768;54.148;12.174;2022-08-25T03:24:06;1.33;;;1.23;;
53513;SDS011;39768;54.148;12.174;2022-08-25T03:28:08;1.85;;;1.70;;
53513;SDS011;39768;54.148;12.174;2022-08-25T03:32:11;1.40;;;1.30;;
53513;SDS011;39768;54.148;12.174;2022-08-25T03:36:12;2.50;;;1.35;;
53513;SDS011;39768;54.148;12.174;2022-08-25T03:40:15;1.67;;;1.58;;
53513;SDS011;39768;54.148;12.174;2022-08-25T03:44:18;2.60;;;2.10;;
53513;SDS011;39768;54.148;12.174;2022-08-25T03:48:21;1.52;;;1.42;;
53513;SDS011;39768;54.148;12.174;2022-08-25T03:52:22;2.35;;;2.10;;
53513;SDS011;39768;54.148;12.174;2022-08-25T03:56:24;2.10;;;1.83;;
53513;SDS011;39768;54.148;12.174;2022-08-25T04:00:27;2.08;;;1.88;;
53513;SDS011;39768;54.148;12.174;2022-08-25T04:04:29;2.45;;;1.75;;
53513;SDS011;39768;54.148;12.174;2022-08-25T04:08:31;1.75;;;1.65;;
53513;SDS011;39768;54.148;12.174;2022-08-25T04:12:33;2.42;;;1.58;;
53513;SDS011;39768;54.148;12.174;2022-08-25T04:16:34;1.65;;;1.55;;
53513;SDS011;39768;54.148;12.174;2022-08-25T04:20:36;1.40;;;1.30;;
53513;SDS011;39768;54.148;12.174;2022-08-25T04:24:38;2.00;;;1.83;;
53513;SDS011;39768;54.148;12.174;2022-08-25T04:28:40;2.05;;;1.85;;
53513;SDS011;39768;54.148;12.174;2022-08-25T04:32:42;2.22;;;1.33;;
53513;SDS011;39768;54.148;12.174;2022-08-25T04:36:44;2.00;;;1.80;;
53513;SDS011;39768;54.148;12.174;2022-08-25T04:40:56;1.90;;;1.45;;
53513;SDS011;39768;54.148;12.174;2022-08-25T04:44:59;2.55;;;1.65;;
53513;SDS011;39768;54.148;12.174;2022-08-25T04:49:02;2.50;;;1.77;;
53513;SDS011;39768;54.148;12.174;2022-08-25T04:53:04;3.28;;;1.98;;
53513;SDS011;39768;54.148;12.174;2022-08-25T04:57:05;2.63;;;2.20;;
53513;SDS011;39768;54.148;12.174;2022-08-25T05:01:11;3.35;;;2.05;;
53513;SDS011;39768;54.148;12.174;2022-08-25T05:05:16;4.78;;;2.13;;
53513;SDS011;39768;54.148;12.174;2022-08-25T05:09:17;2.55;;;1.73;;
53513;SDS011;39768;54.148;12.174;2022-08-25T05:13:22;2.80;;;1.67;;
53513;SDS011;39768;54.148;12.174;2022-08-25T05:17:25;2.25;;;2.05;;
53513;SDS011;39768;54.148;12.174;2022-08-25T05:21:28;2.85;;;2.53;;
53513;SDS011;39768;54.148;12.174;2022-08-25T05:25:30;3.45;;;2.63;;
53513;SDS011;39768;54.148;12.174;2022-08-25T05:29:32;4.22;;;2.60;;
53513;SDS011;39768;54.148;12.174;2022-08-25T05:33:35;4.70;;;2.25;;
53513;SDS011;39768;54.148;12.174;2022-08-25T05:37:37;5.85;;;3.30;;
53513;SDS011;39768;54.148;12.174;2022-08-25T05:41:38;2.40;;;2.20;;
53513;SDS011;39768;54.148;12.174;2022-08-25T05:45:40;2.75;;;2.42;;
53513;SDS011;39768;54.148;12.174;2022-08-25T05:49:42;3.00;;;2.20;;
53513;SDS011;39768;54.148;12.174;2022-08-25T05:53:44;3.45;;;2.28;;
53513;SDS011;39768;54.148;12.174;2022-08-25T05:57:50;4.82;;;3.15;;
53513;SDS011;39768;54.148;12.174;2022-08-25T06:01:51;2.33;;;1.85;;
53513;SDS011;39768;54.148;12.174;2022-08-25T06:06:11;2.80;;;2.55;;
53513;SDS011;39768;54.148;12.174;2022-08-25T06:10:13;3.72;;;2.65;;
53513;SDS011;39768;54.148;12.174;2022-08-25T06:14:15;3.88;;;2.65;;
53513;SDS011;39768;54.148;12.174;2022-08-25T06:18:17;2.72;;;2.30;;
53513;SDS011;39768;54.148;12.174;2022-08-25T06:22:19;4.45;;;2.72;;
53513;SDS011;39768;54.148;12.174;2022-08-25T06:26:21;3.17;;;2.88;;
53513;SDS011;39768;54.148;12.174;2022-08-25T06:30:23;7.47;;;3.08;;
53513;SDS011;39768;54.148;12.174;2022-08-25T06:34:29;4.45;;;2.42;;
53513;SDS011;39768;54.148;12.174;2022-08-25T06:38:30;4.88;;;2.40;;
53513;SDS011;39768;54.148;12.174;2022-08-25T06:42:32;3.97;;;3.10;;
53513;SDS011;39768;54.148;12.174;2022-08-25T06:46:35;3.92;;;2.92;;
53513;SDS011;39768;54.148;12.174;2022-08-25T06:50:37;3.58;;;2.63;;
53513;SDS011;39768;54.148;12.174;2022-08-25T06:54:40;3.30;;;2.47;;
53513;SDS011;39768;54.148;12.174;2022-08-25T06:58:41;3.00;;;2.28;;
53513;SDS011;39768;54.148;12.174;2022-08-25T07:02:43;3.53;;;3.22;;
53513;SDS011;39768;54.148;12.174;2022-08-25T07:06:45;3.15;;;2.65;;
53513;SDS011;39768;54.148;12.174;2022-08-25T07:10:46;5.28;;;2.90;;
53513;SDS011;39768;54.148;12.174;2022-08-25T07:14:48;8.50;;;2.88;;
53513;SDS011;39768;54.148;12.174;2022-08-25T07:19:10;7.38;;;3.45;;
53513;SDS011;39768;54.148;12.174;2022-08-25T07:23:15;3.63;;;2.45;;
53513;SDS011;39768;54.148;12.174;2022-08-25T07:27:16;7.22;;;3.08;;
53513;SDS011;39768;54.148;12.174;2022-08-25T07:31:18;5.28;;;3.25;;
53513;SDS011;39768;54.148;12.174;2022-08-25T07:35:19;4.22;;;3.10;;
53513;SDS011;39768;54.148;12.174;2022-08-25T07:39:25;4.47;;;2.65;;
53513;SDS011;39768;54.148;12.174;2022-08-25T07:43:29;4.05;;;3.35;;
53513;SDS011;39768;54.148;12.174;2022-08-25T07:47:30;4.10;;;3.28;;
53513;SDS011;39768;54.148;12.174;2022-08-25T07:51:32;7.35;;;2.88;;
53513;SDS011;39768;54.148;12.174;2022-08-25T07:55:34;3.47;;;3.08;;
53513;SDS011;39768;54.148;12.174;2022-08-25T07:59:39;4.30;;;3.20;;
53513;SDS011;39768;54.148;12.174;2022-08-25T08:03:42;7.78;;;2.58;;
53513;SDS011;39768;54.148;12.174;2022-08-25T08:07:53;4.28;;;2.50;;
53513;SDS011;39768;54.148;12.174;2022-08-25T08:11:55;1.85;;;1.75;;
53513;SDS011;39768;54.148;12.174;2022-08-25T08:15:57;6.40;;;2.78;;
53513;SDS011;39768;54.148;12.174;2022-08-25T08:19:59;3.10;;;2.78;;
53513;SDS011;39768;54.148;12.174;2022-08-25T08:24:02;6.32;;;2.15;;
53513;SDS011;39768;54.148;12.174;2022-08-25T08:28:15;2.90;;;2.08;;
53513;SDS011;39768;54.148;12.174;2022-08-25T08:32:16;6.35;;;1.60;;
53513;SDS011;39768;54.148;12.174;2022-08-25T08:36:19;1.75;;;1.65;;
53513;SDS011;39768;54.148;12.174;2022-08-25T08:40:25;3.22;;;2.30;;
53513;SDS011;39768;54.148;12.174;2022-08-25T08:48:59;6.80;;;2.15;;
53513;SDS011;39768;54.148;12.174;2022-08-25T08:53:14;4.22;;;1.92;;
53513;SDS011;39768;54.148;12.174;2022-08-25T08:57:23;5.75;;;1.65;;
53513;SDS011;39768;54.148;12.174;2022-08-25T09:01:32;6.70;;;2.20;;
53513;SDS011;39768;54.148;12.174;2022-08-25T09:05:42;1.80;;;1.70;;
53513;SDS011;39768;54.148;12.174;2022-08-25T09:09:48;1.58;;;1.40;;
53513;SDS011;39768;54.148;12.174;2022-08-25T09:18:19;2.58;;;1.83;;
53513;SDS011;39768;54.148;12.174;2022-08-25T09:31:25;4.05;;;1.90;;
53513;SDS011;39768;54.148;12.174;2022-08-25T09:35:33;2.05;;;1.75;;
53513;SDS011;39768;54.148;12.174;2022-08-25T09:39:37;3.00;;;2.20;;
53513;SDS011;39768;54.148;12.174;2022-08-25T09:43:40;12.75;;;2.00;;
53513;SDS011;39768;54.148;12.174;2022-08-25T09:47:43;2.40;;;2.08;;
53513;SDS011;39768;54.148;12.174;2022-08-25T09:51:46;5.53;;;1.60;;
53513;SDS011;39768;54.148;12.174;2022-08-25T09:55:58;1.85;;;1.60;;
53513;SDS011;39768;54.148;12.174;2022-08-25T10:00:09;1.75;;;1.33;;
53513;SDS011;39768;54.148;12.174;2022-08-25T10:04:38;2.40;;;1.85;;
53513;SDS011;39768;54.148;12.174;2022-08-25T10:12:45;4.35;;;2.25;;
53513;SDS011;39768;54.148;12.174;2022-08-25T10:16:52;2.75;;;1.77;;
53513;SDS011;39768;54.148;12.174;2022-08-25T10:21:13;4.78;;;1.85;;
53513;SDS011;39768;54.148;12.174;2022-08-25T10:25:26;5.97;;;1.48;;
53513;SDS011;39768;54.148;12.174;2022-08-25T10:29:34;3.63;;;2.10;;
53513;SDS011;39768;54.148;12.174;2022-08-25T10:51:50;1.60;;;1.50;;
53513;SDS011;39768;54.148;12.174;2022-08-25T11:00:26;5.95;;;1.92;;
53513;SDS011;39768;54.148;12.174;2022-08-25T11:04:42;6.10;;;2.30;;
53513;SDS011;39768;54.148;12.174;2022-08-25T11:08:50;3.22;;;2.15;;
53513;SDS011;39768;54.148;12.174;2022-08-25T11:12:57;2.85;;;1.45;;
53513;SDS011;39768;54.148;12.174;2022-08-25T11:17:15;2.20;;;1.63;;
53513;SDS011;39768;54.148;12.174;2022-08-25T11:21:22;4.50;;;2.22;;
53513;SDS011;39768;54.148;12.174;2022-08-25T11:25:31;4.65;;;1.73;;
53513;SDS011;39768;54.148;12.174;2022-08-25T11:29:37;2.88;;;2.08;;
53513;SDS011;39768;54.148;12.174;2022-08-25T11:33:39;4.57;;;2.00;;
53513;SDS011;39768;54.148;12.174;2022-08-25T11:37:52;5.82;;;2.42;;
53513;SDS011;39768;54.148;12.174;2022-08-25T11:50:59;5.28;;;1.80;;
53513;SDS011;39768;54.148;12.174;2022-08-25T12:08:52;6.15;;;1.60;;
53513;SDS011;39768;54.148;12.174;2022-08-25T12:13:02;7.03;;;1.58;;
53513;SDS011;39768;54.148;12.174;2022-08-25T12:17:21;2.28;;;2.05;;
53513;SDS011;39768;54.148;12.174;2022-08-25T12:21:28;9.65;;;2.15;;
53513;SDS011;39768;54.148;12.174;2022-08-25T12:25:34;2.38;;;1.75;;
53513;SDS011;39768;54.148;12.174;2022-08-25T12:29:44;1.77;;;1.33;;
53513;SDS011;39768;54.148;12.174;2022-08-25T12:38:08;7.32;;;2.15;;
53513;SDS011;39768;54.148;12.174;2022-08-25T12:42:34;1.42;;;1.30;;
53513;SDS011;39768;54.148;12.174;2022-08-25T12:46:38;5.90;;;2.13;;
53513;SDS011;39768;54.148;12.174;2022-08-25T12:50:44;2.28;;;2.08;;
53513;SDS011;39768;54.148;12.174;2022-08-25T12:54:57;3.30;;;2.05;;
53513;SDS011;39768;54.148;12.174;2022-08-25T13:07:48;2.03;;;1.58;;
53513;SDS011;39768;54.148;12.174;2022-08-25T13:16:17;4.18;;;1.80;;
53513;SDS011;39768;54.148;12.174;2022-08-25T13:20:25;5.67;;;1.70;;
53513;SDS011;39768;54.148;12.174;2022-08-25T13:24:31;3.28;;;1.70;;
53513;SDS011;39768;54.148;12.174;2022-08-25T13:28:41;1.88;;;1.52;;
53513;SDS011;39768;54.148;12.174;2022-08-25T13:32:50;3.45;;;2.33;;
53513;SDS011;39768;54.148;12.174;2022-08-25T13:36:52;2.25;;;1.77;;
53513;SDS011;39768;54.148;12.174;2022-08-25T13:41:16;1.77;;;1.45;;
53513;SDS011;39768;54.148;12.174;2022-08-25T13:45:29;3.00;;;1.83;;
53513;SDS011;39768;54.148;12.174;2022-08-25T13:49:43;3.25;;;1.77;;
53513;SDS011;39768;54.148;12.174;2022-08-25T13:53:59;1.98;;;1.77;;
53513;SDS011;39768;54.148;12.174;2022-08-25T13:58:03;3.67;;;1.60;;
53513;SDS011;39768;54.148;12.174;2022-08-25T14:02:25;2.70;;;1.73;;
53513;SDS011;39768;54.148;12.174;2022-08-25T14:06:44;3.80;;;2.00;;
53513;SDS011;39768;54.148;12.174;2022-08-25T14:10:46;5.32;;;1.70;;
53513;SDS011;39768;54.148;12.174;2022-08-25T14:14:56;2.08;;;1.92;;
53513;SDS011;39768;54.148;12.174;2022-08-25T14:18:59;6.03;;;2.03;;
53513;SDS011;39768;54.148;12.174;2022-08-25T14:23:12;3.22;;;2.33;;
53513;SDS011;39768;54.148;12.174;2022-08-25T14:27:19;1.88;;;1.48;;
53513;SDS011;39768;54.148;12.174;2022-08-25T14:31:25;8.15;;;2.30;;
53513;SDS011;39768;54.148;12.174;2022-08-25T14:35:29;5.28;;;2.30;;
53513;SDS011;39768;54.148;12.174;2022-08-25T14:39:31;1.58;;;1.30;;
53513;SDS011;39768;54.148;12.174;2022-08-25T14:43:33;2.63;;;1.98;;
53513;SDS011;39768;54.148;12.174;2022-08-25T14:47:35;10.20;;;1.73;;
53513;SDS011;39768;54.148;12.174;2022-08-25T14:51:37;6.25;;;1.70;;
53513;SDS011;39768;54.148;12.174;2022-08-25T14:55:43;2.38;;;1.92;;
53513;SDS011;39768;54.148;12.174;2022-08-25T14:59:45;4.78;;;2.13;;
53513;SDS011;39768;54.148;12.174;2022-08-25T15:03:47;3.13;;;1.73;;
53513;SDS011;39768;54.148;12.174;2022-08-25T15:07:52;1.70;;;1.23;;
53513;SDS011;39768;54.148;12.174;2022-08-25T15:12:13;2.95;;;1.52;;
53513;SDS011;39768;54.148;12.174;2022-08-25T15:16:36;13.23;;;2.17;;
53513;SDS011;39768;54.148;12.174;2022-08-25T15:20:42;2.03;;;1.92;;
53513;SDS011;39768;54.148;12.174;2022-08-25T15:24:44;2.47;;;2.10;;
53513;SDS011;39768;54.148;12.174;2022-08-25T15:28:46;2.15;;;1.67;;
53513;SDS011;39768;54.148;12.174;2022-08-25T15:32:50;5.35;;;1.88;;
53513;SDS011;39768;54.148;12.174;2022-08-25T15:36:57;1.63;;;1.40;;
53513;SDS011;39768;54.148;12.174;2022-08-25T15:41:00;2.78;;;1.50;;
53513;SDS011;39768;54.148;12.174;2022-08-25T15:45:03;2.13;;;1.60;;
53513;SDS011;39768;54.148;12.174;2022-08-25T15:49:05;6.13;;;2.05;;
53513;SDS011;39768;54.148;12.174;2022-08-25T15:53:08;5.05;;;2.00;;
53513;SDS011;39768;54.148;12.174;2022-08-25T15:57:11;2.13;;;1.33;;
53513;SDS011;39768;54.148;12.174;2022-08-25T16:01:26;3.03;;;2.13;;
53513;SDS011;39768;54.148;12.174;2022-08-25T16:05:30;3.45;;;1.67;;
53513;SDS011;39768;54.148;12.174;2022-08-25T16:09:32;1.63;;;1.48;;
53513;SDS011;39768;54.148;12.174;2022-08-25T16:13:35;1.50;;;1.40;;
53513;SDS011;39768;54.148;12.174;2022-08-25T16:17:36;3.58;;;1.52;;
53513;SDS011;39768;54.148;12.174;2022-08-25T16:21:41;3.53;;;1.45;;
53513;SDS011;39768;54.148;12.174;2022-08-25T16:25:48;3.17;;;1.77;;
53513;SDS011;39768;54.148;12.174;2022-08-25T16:29:52;2.63;;;2.40;;
53513;SDS011;39768;54.148;12.174;2022-08-25T16:33:53;1.92;;;1.63;;
53513;SDS011;39768;54.148;12.174;2022-08-25T16:37:58;4.03;;;1.90;;
53513;SDS011;39768;54.148;12.174;2022-08-25T16:42:04;2.00;;;1.60;;
53513;SDS011;39768;54.148;12.174;2022-08-25T16:46:07;2.42;;;1.77;;
53513;SDS011;39768;54.148;12.174;2022-08-25T16:50:11;4.32;;;1.73;;
53513;SDS011;39768;54.148;12.174;2022-08-25T16:54:13;4.53;;;1.88;;
53513;SDS011;39768;54.148;12.174;2022-08-25T16:58:33;8.52;;;1.58;;
53513;SDS011;39768;54.148;12.174;2022-08-25T17:02:36;5.75;;;1.50;;
53513;SDS011;39768;54.148;12.174;2022-08-25T17:06:40;5.88;;;1.70;;
53513;SDS011;39768;54.148;12.174;2022-08-25T17:10:52;2.65;;;1.15;;
53513;SDS011;39768;54.148;12.174;2022-08-25T17:14:53;2.28;;;1.40;;
53513;SDS011;39768;54.148;12.174;2022-08-25T17:18:56;4.07;;;1.50;;
53513;SDS011;39768;54.148;12.174;2022-08-25T17:22:58;3.45;;;1.40;;
53513;SDS011;39768;54.148;12.174;2022-08-25T17:27:01;9.00;;;2.13;;
53513;SDS011;39768;54.148;12.174;2022-08-25T17:31:02;1.70;;;1.60;;
53513;SDS011;39768;54.148;12.174;2022-08-25T17:35:04;6.63;;;2.08;;
53513;SDS011;39768;54.148;12.174;2022-08-25T17:39:07;5.38;;;1.85;;
53513;SDS011;39768;54.148;12.174;2022-08-25T17:43:11;1.95;;;1.75;;
53513;SDS011;39768;54.148;12.174;2022-08-25T17:47:12;2.58;;;1.42;;
53513;SDS011;39768;54.148;12.174;2022-08-25T17:51:14;2.45;;;1.70;;
53513;SDS011;39768;54.148;12.174;2022-08-25T17:55:16;10.93;;;2.30;;
53513;SDS011;39768;54.148;12.174;2022-08-25T17:59:21;1.27;;;1.17;;
53513;SDS011;39768;54.148;12.174;2022-08-25T18:03:23;3.55;;;2.25;;
53513;SDS011;39768;54.148;12.174;2022-08-25T18:07:25;4.75;;;1.80;;
53513;SDS011;39768;54.148;12.174;2022-08-25T18:11:27;2.83;;;1.67;;
53513;SDS011;39768;54.148;12.174;2022-08-25T18:15:30;1.42;;;1.33;;
53513;SDS011;39768;54.148;12.174;2022-08-25T18:19:34;4.75;;;2.00;;
53513;SDS011;39768;54.148;12.174;2022-08-25T18:23:35;3.80;;;1.75;;
53513;SDS011;39768;54.148;12.174;2022-08-25T18:27:38;5.82;;;1.77;;
53513;SDS011;39768;54.148;12.174;2022-08-25T18:31:40;1.38;;;1.17;;
53513;SDS011;39768;54.148;12.174;2022-08-25T18:35:43;2.25;;;1.48;;
53513;SDS011;39768;54.148;12.174;2022-08-25T18:39:44;4.65;;;1.80;;
53513;SDS011;39768;54.148;12.174;2022-08-25T18:44:07;9.70;;;2.40;;
53513;SDS011;39768;54.148;12.174;2022-08-25T18:48:10;3.17;;;2.08;;
53513;SDS011;39768;54.148;12.174;2022-08-25T18:52:12;1.95;;;1.77;;
53513;SDS011;39768;54.148;12.174;2022-08-25T18:56:14;8.07;;;1.85;;
53513;SDS011;39768;54.148;12.174;2022-08-25T19:00:17;5.13;;;2.15;;
53513;SDS011;39768;54.148;12.174;2022-08-25T19:04:20;7.85;;;1.95;;
53513;SDS011;39768;54.148;12.174;2022-08-25T19:08:31;13.02;;;2.17;;
53513;SDS011;39768;54.148;12.174;2022-08-25T19:12:33;3.75;;;2.00;;
53513;SDS011;39768;54.148;12.174;2022-08-25T19:16:38;9.50;;;1.77;;
53513;SDS011;39768;54.148;12.174;2022-08-25T19:20:41;2.28;;;1.27;;
53513;SDS011;39768;54.148;12.174;2022-08-25T19:24:43;2.85;;;1.35;;
53513;SDS011;39768;54.148;12.174;2022-08-25T19:28:45;4.18;;;1.73;;
53513;SDS011;39768;54.148;12.174;2022-08-25T19:32:49;3.85;;;1.98;;
53513;SDS011;39768;54.148;12.174;2022-08-25T19:36:52;3.03;;;1.15;;
53513;SDS011;39768;54.148;12.174;2022-08-25T19:40:55;5.18;;;1.83;;
53513;SDS011;39768;54.148;12.174;2022-08-25T19:44:56;1.23;;;1.13;;
53513;SDS011;39768;54.148;12.174;2022-08-25T19:49:00;2.25;;;1.38;;
53513;SDS011;39768;54.148;12.174;2022-08-25T19:57:13;3.15;;;1.42;;
53513;SDS011;39768;54.148;12.174;2022-08-25T20:01:35;10.98;;;2.00;;
53513;SDS011;39768;54.148;12.174;2022-08-25T20:05:40;5.47;;;1.63;;
53513;SDS011;39768;54.148;12.174;2022-08-25T20:09:42;2.65;;;1.88;;
53513;SDS011;39768;54.148;12.174;2022-08-25T20:13:45;5.43;;;1.85;;
53513;SDS011;39768;54.148;12.174;2022-08-25T20:17:49;2.35;;;1.73;;
53513;SDS011;39768;54.148;12.174;2022-08-25T20:21:56;3.42;;;1.38;;
53513;SDS011;39768;54.148;12.174;2022-08-25T20:25:59;6.28;;;1.70;;
53513;SDS011;39768;54.148;12.174;2022-08-25T20:30:01;3.70;;;1.35;;
53513;SDS011;39768;54.148;12.174;2022-08-25T20:34:05;5.95;;;1.80;;
53513;SDS011;39768;54.148;12.174;2022-08-25T20:38:07;3.70;;;1.80;;
53513;SDS011;39768;54.148;12.174;2022-08-25T20:42:09;2.15;;;1.70;;
53513;SDS011;39768;54.148;12.174;2022-08-25T20:46:10;3.20;;;2.03;;
53513;SDS011;39768;54.148;12.174;2022-08-25T20:50:12;1.80;;;1.63;;
53513;SDS011;39768;54.148;12.174;2022-08-25T20:54:15;5.75;;;1.95;;
53513;SDS011;39768;54.148;12.174;2022-08-25T20:58:17;4.05;;;1.70;;
53513;SDS011;39768;54.148;12.174;2022-08-25T21:02:19;2.00;;;1.77;;
53513;SDS011;39768;54.148;12.174;2022-08-25T21:06:21;3.75;;;1.63;;
53513;SDS011;39768;54.148;12.174;2022-08-25T21:10:22;5.10;;;1.65;;
53513;SDS011;39768;54.148;12.174;2022-08-25T21:14:24;4.82;;;1.55;;
53513;SDS011;39768;54.148;12.174;2022-08-25T21:18:26;3.63;;;2.05;;
53513;SDS011;39768;54.148;12.174;2022-08-25T21:22:32;5.05;;;1.48;;
53513;SDS011;39768;54.148;12.174;2022-08-25T21:26:35;6.57;;;1.73;;
53513;SDS011;39768;54.148;12.174;2022-08-25T21:30:47;1.52;;;1.42;;
53513;SDS011;39768;54.148;12.174;2022-08-25T21:34:50;2.83;;;1.63;;
53513;SDS011;39768;54.148;12.174;2022-08-25T21:38:55;2.13;;;1.50;;
53513;SDS011;39768;54.148;12.174;2022-08-25T21:43:00;4.47;;;1.58;;
53513;SDS011;39768;54.148;12.174;2022-08-25T21:47:02;4.32;;;1.95;;
53513;SDS011;39768;54.148;12.174;2022-08-25T21:51:05;2.65;;;1.58;;
53513;SDS011;39768;54.148;12.174;2022-08-25T21:55:10;1.52;;;1.40;;
53513;SDS011;39768;54.148;12.174;2022-08-25T21:59:17;8.55;;;1.55;;
53513;SDS011;39768;54.148;12.174;2022-08-25T22:03:22;2.33;;;1.80;;
53513;SDS011;39768;54.148;12.174;2022-08-25T22:07:23;6.35;;;2.30;;
53513;SDS011;39768;54.148;12.174;2022-08-25T22:11:25;2.90;;;1.20;;
53513;SDS011;39768;54.148;12.174;2022-08-25T22:15:34;1.67;;;1.40;;
53513;SDS011;39768;54.148;12.174;2022-08-25T22:19:35;10.48;;;2.15;;
53513;SDS011;39768;54.148;12.174;2022-08-25T22:23:37;4.25;;;1.90;;
53513;SDS011;39768;54.148;12.174;2022-08-25T22:27:44;2.92;;;1.67;;
53513;SDS011;39768;54.148;12.174;2022-08-25T22:31:46;3.03;;;2.35;;
53513;SDS011;39768;54.148;12.174;2022-08-25T22:35:53;6.22;;;2.35;;
53513;SDS011;39768;54.148;12.174;2022-08-25T22:40:00;5.47;;;2.30;;
53513;SDS011;39768;54.148;12.174;2022-08-25T22:44:04;5.18;;;1.60;;
53513;SDS011;39768;54.148;12.174;2022-08-25T22:48:06;2.85;;;1.95;;
53513;SDS011;39768;54.148;12.174;2022-08-25T22:52:07;4.32;;;2.30;;
53513;SDS011;39768;54.148;12.174;2022-08-25T22:56:13;8.05;;;2.78;;
53513;SDS011;39768;54.148;12.174;2022-08-25T23:00:17;9.40;;;2.88;;
53513;SDS011;39768;54.148;12.174;2022-08-25T23:04:19;9.35;;;3.03;;
53513;SDS011;39768;54.148;12.174;2022-08-25T23:08:22;5.38;;;2.85;;
53513;SDS011;39768;54.148;12.174;2022-08-25T23:12:40;10.45;;;3.50;;
53513;SDS011;39768;54.148;12.174;2022-08-25T23:16:44;21.83;;;3.08;;
53513;SDS011;39768;54.148;12.174;2022-08-25T23:20:46;6.32;;;2.88;;
53513;SDS011;39768;54.148;12.174;2022-08-25T23:25:06;5.88;;;3.35;;
53513;SDS011;39768;54.148;12.174;2022-08-25T23:29:07;4.15;;;3.05;;
53513;SDS011;39768;54.148;12.174;2022-08-25T23:33:19;7.53;;;3.08;;
53513;SDS011;39768;54.148;12.174;2022-08-25T23:37:21;4.25;;;3.03;;
53513;SDS011;39768;54.148;12.174;2022-08-25T23:41:23;6.40;;;2.63;;
53513;SDS011;39768;54.148;12.174;2022-08-25T23:45:25;4.65;;;3.05;;
53513;SDS011;39768;54.148;12.174;2022-08-25T23:49:27;6.13;;;2.42;;
53513;SDS011;39768;54.148;12.174;2022-08-25T23:53:29;3.10;;;2.63;;
53513;SDS011;39768;54.148;12.174;2022-08-25T23:57:31;3.78;;;2.38;;
